Time;durP1;ratioP1;P1;durP2;ratioP2;P2;SDS_P1;SDS_P2;PMS_P1;PMS_P2;Temp;Humidity;BMP_temperature;BMP_pressure;BME280_temperature;BME280_humidity;BME280_pressure;Samples;Min_cycle;Max_cycle;Signal;HPM_P1;HPM_P2
2023/12/24 00:02:18;;;;;;;5.97;3.88;;;;;;;10.89;79.63;100779.88;5065210;28;20052;-74
2023/12/24 00:04:43;;;;;;;5.00;4.10;;;;;;;10.85;79.09;100780.06;5060169;28;20024;-74
2023/12/24 00:07:09;;;;;;;8.90;3.75;;;;;;;10.89;79.79;100784.31;5056854;28;20555;-74
2023/12/24 00:09:34;;;;;;;6.93;3.75;;;;;;;10.88;79.45;100783.44;5053680;28;20070;-74
2023/12/24 00:11:59;;;;;;;7.50;3.28;;;;;;;10.86;79.87;100785.28;5063103;28;20050;-74
2023/12/24 00:14:24;;;;;;;4.78;3.53;;;;;;;10.88;79.93;100794.03;5063895;28;20056;-74
2023/12/24 00:16:50;;;;;;;5.90;3.83;;;;;;;10.87;79.79;100792.31;5066492;28;20044;-74
2023/12/24 00:19:15;;;;;;;5.40;3.42;;;;;;;10.93;79.60;100792.03;5059737;28;20043;-73
2023/12/24 00:21:42;;;;;;;6.80;3.75;;;;;;;10.90;79.11;100802.75;5060593;28;20029;-74
2023/12/24 00:24:07;;;;;;;6.00;3.35;;;;;;;10.88;78.81;100806.38;5059904;28;20035;-74
2023/12/24 00:26:33;;;;;;;4.38;3.35;;;;;;;10.92;78.59;100800.06;5062186;28;20388;-73
2023/12/24 00:28:58;;;;;;;4.20;3.45;;;;;;;10.94;78.83;100814.91;5063862;28;20058;-74
2023/12/24 00:31:24;;;;;;;4.53;3.28;;;;;;;10.91;77.99;100788.63;5057724;28;20037;-74
2023/12/24 00:33:49;;;;;;;7.00;3.20;;;;;;;10.91;77.95;100772.75;5057656;28;20021;-74
2023/12/24 00:36:14;;;;;;;5.13;2.97;;;;;;;10.93;77.54;100786.75;5063414;28;20036;-73
2023/12/24 00:38:40;;;;;;;5.60;2.83;;;;;;;10.96;77.01;100776.06;5060314;28;20464;-74
2023/12/24 00:41:05;;;;;;;4.55;2.80;;;;;;;10.98;76.49;100781.25;5056958;28;20070;-73
2023/12/24 00:43:30;;;;;;;4.25;2.88;;;;;;;10.94;75.76;100764.66;5058769;28;20063;-73
2023/12/24 00:45:56;;;;;;;4.60;2.30;;;;;;;11.01;75.80;100757.34;5063110;28;20032;-73
2023/12/24 00:48:21;;;;;;;5.78;2.65;;;;;;;11.00;75.96;100745.00;5056263;28;20070;-73
2023/12/24 00:50:46;;;;;;;3.67;2.55;;;;;;;11.21;74.26;100730.00;5061053;28;20028;-74
2023/12/24 00:53:12;;;;;;;3.97;2.17;;;;;;;11.47;73.03;100728.81;5063173;28;20020;-73
2023/12/24 00:55:39;;;;;;;4.57;2.22;;;;;;;11.31;73.70;100723.34;5065426;28;20095;-74
2023/12/24 00:58:05;;;;;;;3.13;1.90;;;;;;;11.24;73.73;100696.31;5057768;28;20052;-74
2023/12/24 01:00:30;;;;;;;2.65;2.13;;;;;;;11.22;74.09;100686.72;5060462;28;20830;-74
2023/12/24 01:02:55;;;;;;;7.35;2.45;;;;;;;11.31;73.33;100686.31;5060707;28;20387;-74
2023/12/24 01:05:21;;;;;;;2.60;1.92;;;;;;;11.31;73.03;100669.56;5061254;28;20472;-73
2023/12/24 01:07:46;;;;;;;4.00;2.00;;;;;;;11.38;73.04;100655.13;5056364;28;20170;-74
2023/12/24 01:10:12;;;;;;;5.10;2.20;;;;;;;11.31;73.23;100636.00;5063759;28;20032;-74
2023/12/24 01:12:37;;;;;;;7.40;2.20;;;;;;;11.09;75.01;100640.56;5053750;28;20064;-74
2023/12/24 01:15:04;;;;;;;3.17;1.85;;;;;;;10.92;74.77;100639.56;5056668;28;20021;-73
2023/12/24 01:17:29;;;;;;;7.10;1.55;;;;;;;10.99;75.51;100646.28;5051597;28;20139;-74
2023/12/24 01:19:56;;;;;;;2.85;1.70;;;;;;;10.94;75.71;100650.91;5055849;28;20119;-74
2023/12/24 01:22:22;;;;;;;3.55;1.40;;;;;;;10.95;75.02;100634.13;5062900;28;20426;-73
2023/12/24 01:24:47;;;;;;;5.35;1.60;;;;;;;11.17;74.78;100638.44;5068882;28;20088;-75
2023/12/24 01:27:12;;;;;;;5.60;1.70;;;;;;;11.13;74.54;100650.09;5067629;28;20020;-74
2023/12/24 01:29:38;;;;;;;2.95;1.30;;;;;;;11.24;74.29;100643.41;5066515;28;20033;-74
2023/12/24 01:32:04;;;;;;;3.72;1.63;;;;;;;11.25;74.76;100649.53;5066428;28;20045;-74
2023/12/24 01:34:29;;;;;;;2.92;1.15;;;;;;;11.35;74.34;100655.25;5068219;28;20039;-73
2023/12/24 01:36:54;;;;;;;5.38;1.70;;;;;;;11.31;74.19;100648.41;5061072;28;20028;-73
2023/12/24 01:39:20;;;;;;;5.20;1.88;;;;;;;11.35;74.83;100634.94;5070252;28;20031;-74
2023/12/24 01:41:47;;;;;;;2.92;1.42;;;;;;;11.38;74.44;100652.50;5069441;28;20107;-74
2023/12/24 01:44:12;;;;;;;7.07;1.52;;;;;;;11.40;75.18;100653.25;5070766;28;20506;-74
2023/12/24 01:46:38;;;;;;;3.92;1.27;;;;;;;11.32;74.79;100676.56;5063217;28;20028;-74
2023/12/24 01:49:07;;;;;;;9.65;1.88;;;;;;;11.42;75.09;100659.31;5060121;28;20503;-74
2023/12/24 01:51:34;;;;;;;3.53;1.20;;;;;;;11.45;75.22;100657.41;5063311;28;20051;-73
2023/12/24 01:54:00;;;;;;;4.68;1.33;;;;;;;11.49;75.44;100663.44;5066421;28;20023;-74
2023/12/24 01:56:27;;;;;;;5.93;2.13;;;;;;;11.20;76.67;100662.97;5066555;28;20040;-74
2023/12/24 01:58:53;;;;;;;5.10;1.60;;;;;;;11.07;78.17;100667.09;5060936;28;20487;-74
2023/12/24 02:01:18;;;;;;;5.65;1.60;;;;;;;11.21;77.66;100658.53;5061310;28;20824;-74
2023/12/24 02:03:44;;;;;;;3.03;1.83;;;;;;;11.18;78.59;100659.53;5065000;28;20028;-74
2023/12/24 02:06:10;;;;;;;4.35;1.70;;;;;;;11.26;78.55;100667.13;5066591;28;20028;-74
2023/12/24 02:08:38;;;;;;;4.68;1.75;;;;;;;11.30;78.86;100658.13;5059233;28;20029;-75
2023/12/24 02:11:04;;;;;;;3.30;1.50;;;;;;;11.23;79.49;100665.47;5061829;28;20077;-75
2023/12/24 02:13:30;;;;;;;2.67;1.60;;;;;;;11.23;80.01;100652.25;5064185;28;20032;-75
2023/12/24 02:15:58;;;;;;;5.75;1.70;;;;;;;11.21;80.04;100653.25;5060025;28;20514;-75
2023/12/24 02:18:24;;;;;;;4.65;1.77;;;;;;;11.27;80.09;100644.16;5056449;28;20028;-75
2023/12/24 02:20:50;;;;;;;5.57;1.83;;;;;;;11.33;80.13;100643.88;5065870;28;20490;-74
2023/12/24 02:23:15;;;;;;;5.28;1.70;;;;;;;11.31;80.66;100643.09;5058871;28;20032;-76
2023/12/24 02:25:43;;;;;;;3.28;1.85;;;;;;;11.30;80.97;100639.59;5058577;28;20129;-75
2023/12/24 02:28:18;;;;;;;3.80;1.80;;;;;;;11.32;80.92;100636.88;5066000;28;20021;-75
2023/12/24 02:30:52;;;;;;;3.42;1.70;;;;;;;11.31;82.08;100633.38;5062441;28;20035;-76
2023/12/24 02:33:20;;;;;;;6.03;2.33;;;;;;;11.36;81.69;100625.22;5054340;28;20123;-76
2023/12/24 02:35:47;;;;;;;3.80;1.90;;;;;;;11.31;82.85;100635.16;5061989;28;20039;-78
2023/12/24 02:38:13;;;;;;;4.35;1.60;;;;;;;11.27;84.17;100625.66;5058584;28;20024;-74
2023/12/24 02:40:39;;;;;;;8.63;3.55;;;;;;;11.24;84.56;100616.06;5065067;28;20032;-76
2023/12/24 02:43:04;;;;;;;4.78;1.92;;;;;;;11.11;84.95;100613.13;5060886;28;20029;-74
2023/12/24 02:45:29;;;;;;;2.78;1.60;;;;;;;11.13;85.21;100602.47;5063279;28;20041;-75
2023/12/24 02:47:55;;;;;;;8.15;2.08;;;;;;;11.13;85.70;100608.63;5062341;28;20101;-75
2023/12/24 02:50:20;;;;;;;3.97;2.08;;;;;;;11.19;86.37;100602.16;5056820;28;20059;-77
2023/12/24 02:52:46;;;;;;;4.80;1.90;;;;;;;11.35;85.13;100591.75;5064897;28;20540;-76
2023/12/24 02:55:12;;;;;;;6.70;3.03;;;;;;;11.22;86.81;100587.03;5063181;28;20028;-76
2023/12/24 02:57:37;;;;;;;6.20;2.70;;;;;;;11.21;86.74;100582.66;5056438;28;20049;-77
2023/12/24 03:00:05;;;;;;;5.25;2.30;;;;;;;11.35;86.24;100589.09;5061788;28;20066;-78
2023/12/24 03:02:31;;;;;;;6.30;2.33;;;;;;;11.33;86.40;100585.66;5057430;28;20075;-75
2023/12/24 03:04:57;;;;;;;4.85;2.25;;;;;;;11.36;86.59;100585.50;5063134;28;20119;-77
2023/12/24 03:07:22;;;;;;;4.93;2.42;;;;;;;11.37;86.62;100601.31;5063481;28;20028;-77
2023/12/24 03:09:48;;;;;;;2.90;2.20;;;;;;;11.45;86.13;100593.03;5062996;28;20042;-76
2023/12/24 03:12:14;;;;;;;6.43;2.40;;;;;;;10.86;88.44;100586.91;5057463;28;20124;-77
2023/12/24 03:14:39;;;;;;;6.38;2.42;;;;;;;11.03;89.99;100580.88;5066235;28;20112;-77
2023/12/24 03:17:04;;;;;;;5.00;3.08;;;;;;;10.45;92.84;100578.22;5065651;28;20052;-77
2023/12/24 03:19:32;;;;;;;7.93;2.38;;;;;;;10.46;93.39;100580.78;5060441;28;20033;-77
2023/12/24 03:21:57;;;;;;;3.47;2.00;;;;;;;11.20;89.40;100554.50;5062161;28;20044;-77
2023/12/24 03:24:23;;;;;;;2.92;1.83;;;;;;;11.21;89.53;100555.34;5059262;28;20029;-77
2023/12/24 03:26:48;;;;;;;2.63;1.98;;;;;;;11.29;89.15;100547.91;5055587;28;20082;-77
2023/12/24 03:29:13;;;;;;;2.35;1.73;;;;;;;11.19;90.36;100543.97;5059860;28;20038;-79
2023/12/24 03:31:39;;;;;;;3.53;1.50;;;;;;;11.27;89.55;100544.47;5063832;28;20028;-78
2023/12/24 03:34:04;;;;;;;2.50;1.30;;;;;;;11.27;90.07;100543.59;5060641;28;20032;-78
2023/12/24 03:36:30;;;;;;;2.10;2.00;;;;;;;11.20;90.65;100541.25;5062871;28;20029;-77
2023/12/24 03:38:55;;;;;;;1.80;1.10;;;;;;;11.13;90.48;100531.03;5064425;28;20032;-78
2023/12/24 03:41:20;;;;;;;2.60;1.10;;;;;;;10.48;94.88;100535.78;5062015;28;20025;-77
2023/12/24 03:43:46;;;;;;;1.17;1.05;;;;;;;10.42;95.66;100538.69;5050468;28;20399;-78
2023/12/24 03:46:11;;;;;;;2.13;1.00;;;;;;;10.46;96.00;100542.94;5058520;28;20048;-77
2023/12/24 03:48:37;;;;;;;2.08;0.82;;;;;;;10.41;96.80;100543.13;5055432;28;20045;-77
2023/12/24 03:51:02;;;;;;;0.90;0.80;;;;;;;10.45;97.08;100522.72;5052755;28;20536;-78
2023/12/24 03:53:28;;;;;;;1.52;0.75;;;;;;;10.42;96.94;100514.91;5058923;28;20036;-78
2023/12/24 03:55:57;;;;;;;1.52;0.60;;;;;;;10.44;97.29;100507.75;5054741;28;20487;-78
2023/12/24 03:58:22;;;;;;;0.88;0.60;;;;;;;10.43;98.05;100516.63;5056348;28;20091;-78
2023/12/24 04:00:48;;;;;;;1.13;0.55;;;;;;;10.51;97.10;100516.28;5056000;28;20047;-78
2023/12/24 04:03:13;;;;;;;0.50;0.50;;;;;;;10.47;98.10;100518.22;5064379;28;20052;-76
2023/12/24 04:05:38;;;;;;;1.40;0.47;;;;;;;10.49;97.36;100516.34;5067500;28;20040;-78
2023/12/24 04:08:04;;;;;;;1.40;0.68;;;;;;;10.49;97.92;100516.34;5062601;28;20060;-77
2023/12/24 04:10:31;;;;;;;1.60;0.50;;;;;;;10.46;98.32;100513.84;5060436;28;20036;-77
2023/12/24 04:13:00;;;;;;;0.40;0.40;;;;;;;10.47;99.10;100513.78;5061134;28;20083;-78
2023/12/24 04:15:25;;;;;;;0.30;0.30;;;;;;;10.54;98.22;100510.84;5060871;28;20032;-78
2023/12/24 04:17:51;;;;;;;0.47;0.32;;;;;;;10.55;98.34;100502.00;5051980;28;20025;-78
2023/12/24 04:20:16;;;;;;;0.40;0.40;;;;;;;10.53;98.59;100515.28;5051926;28;20029;-79
2023/12/24 04:22:42;;;;;;;0.75;0.50;;;;;;;10.45;99.34;100502.44;5060429;28;20033;-78
2023/12/24 04:25:07;;;;;;;0.30;0.30;;;;;;;10.64;99.16;100501.59;5058019;28;20028;-78
2023/12/24 04:27:33;;;;;;;1.23;0.55;;;;;;;10.67;99.00;100504.06;5058153;28;20135;-78
2023/12/24 04:29:58;;;;;;;0.70;0.70;;;;;;;10.41;100.00;100494.72;5060703;28;20112;-77
2023/12/24 04:32:23;;;;;;;0.65;0.50;;;;;;;10.62;99.85;100504.28;5055883;28;20021;-77
2023/12/24 04:34:49;;;;;;;0.60;0.60;;;;;;;10.46;100.00;100500.63;5056131;28;20032;-78
2023/12/24 04:37:14;;;;;;;0.95;0.40;;;;;;;10.42;100.00;100502.56;5053659;28;20118;-78
2023/12/24 04:39:39;;;;;;;0.50;0.50;;;;;;;10.48;100.00;100501.41;5060123;28;20024;-77
2023/12/24 04:42:05;;;;;;;0.45;0.45;;;;;;;10.44;100.00;100494.56;5060499;28;20048;-77
2023/12/24 04:44:30;;;;;;;0.50;0.50;;;;;;;10.43;100.00;100496.34;5058871;28;20043;-77
2023/12/24 04:46:55;;;;;;;2.38;0.60;;;;;;;10.41;100.00;100490.28;5058255;28;20104;-77
2023/12/24 04:49:21;;;;;;;0.60;0.60;;;;;;;10.41;100.00;100498.22;5059419;28;20032;-77
2023/12/24 04:51:46;;;;;;;0.50;0.50;;;;;;;10.44;100.00;100499.84;5058864;28;20024;-77
2023/12/24 04:54:12;;;;;;;0.32;0.32;;;;;;;10.47;100.00;100497.91;5060546;28;20054;-77
2023/12/24 04:56:37;;;;;;;0.50;0.50;;;;;;;10.49;100.00;100500.47;5061268;28;20021;-79
2023/12/24 04:59:03;;;;;;;1.17;0.40;;;;;;;10.50;100.00;100494.28;5061733;28;20132;-79
2023/12/24 05:01:28;;;;;;;0.70;0.70;;;;;;;10.50;100.00;100493.44;5058150;28;20029;-79
2023/12/24 05:03:53;;;;;;;1.27;0.43;;;;;;;10.50;100.00;100491.66;5066848;28;20029;-79
2023/12/24 05:06:19;;;;;;;0.50;0.50;;;;;;;10.52;100.00;100487.13;5062052;28;20020;-79
2023/12/24 05:08:44;;;;;;;0.52;0.52;;;;;;;10.54;100.00;100485.31;5061326;28;20483;-79
2023/12/24 05:11:10;;;;;;;0.52;0.50;;;;;;;10.52;100.00;100481.84;5065109;28;20111;-80
2023/12/24 05:13:36;;;;;;;0.65;0.65;;;;;;;10.47;100.00;100479.41;5062076;28;20033;-78
2023/12/24 05:16:02;;;;;;;0.60;0.60;;;;;;;10.50;100.00;100481.06;5061292;28;20484;-79
2023/12/24 05:18:28;;;;;;;0.50;0.45;;;;;;;10.51;100.00;100487.22;5065720;28;20051;-80
2023/12/24 05:20:54;;;;;;;1.02;0.63;;;;;;;10.51;100.00;100488.06;5065620;28;20063;-78
2023/12/24 05:23:21;;;;;;;1.98;0.57;;;;;;;10.48;100.00;100481.13;5065266;28;20443;-79
2023/12/24 05:25:46;;;;;;;0.50;0.50;;;;;;;10.51;100.00;100482.78;5060322;28;20112;-78
2023/12/24 05:28:11;;;;;;;0.50;0.50;;;;;;;10.58;100.00;100483.34;5067269;28;20116;-79
2023/12/24 05:30:37;;;;;;;0.40;0.40;;;;;;;10.52;100.00;100483.63;5059885;28;20021;-78
2023/12/24 05:33:02;;;;;;;0.85;0.57;;;;;;;10.53;100.00;100483.56;5059771;28;20476;-78
2023/12/24 05:35:28;;;;;;;0.45;0.45;;;;;;;10.57;100.00;100487.78;5060707;28;20025;-78
2023/12/24 05:37:53;;;;;;;0.40;0.40;;;;;;;10.55;100.00;100480.88;5055167;28;20021;-78
2023/12/24 05:40:18;;;;;;;0.60;0.60;;;;;;;10.55;100.00;100479.09;5065354;28;20025;-79
2023/12/24 05:42:44;;;;;;;0.60;0.60;;;;;;;10.54;100.00;100479.13;5069553;28;20604;-79
2023/12/24 05:45:11;;;;;;;1.38;0.68;;;;;;;10.53;100.00;100478.28;5077468;28;20394;-80
2023/12/24 05:47:36;;;;;;;0.40;0.40;;;;;;;10.58;100.00;100480.72;5069288;28;20393;-79
2023/12/24 05:50:10;;;;;;;0.52;0.52;;;;;;;10.53;100.00;100482.72;5069809;28;20492;-78
2023/12/24 05:52:37;;;;;;;0.40;0.40;;;;;;;10.51;100.00;100481.94;5067755;28;20537;-80
2023/12/24 05:55:03;;;;;;;0.50;0.50;;;;;;;10.53;100.00;100480.91;5061315;28;20025;-79
2023/12/24 05:57:28;;;;;;;0.65;0.65;;;;;;;10.55;100.00;100476.44;5058043;28;20052;-79
2023/12/24 05:59:53;;;;;;;0.55;0.55;;;;;;;10.71;100.00;100466.84;5055115;28;20051;-79
2023/12/24 06:02:19;;;;;;;0.50;0.50;;;;;;;10.75;100.00;100456.16;5062335;28;20483;-79
2023/12/24 06:04:45;;;;;;;0.60;0.60;;;;;;;10.81;100.00;100462.00;5063355;28;20107;-79
2023/12/24 06:07:10;;;;;;;0.43;0.43;;;;;;;10.80;100.00;100468.22;5053132;28;20071;-78
2023/12/24 06:09:36;;;;;;;0.47;0.47;;;;;;;10.86;100.00;100467.06;5059351;28;20028;-78
2023/12/24 06:12:02;;;;;;;0.60;0.60;;;;;;;10.91;100.00;100472.97;5063988;28;20051;-78
2023/12/24 06:14:27;;;;;;;0.65;0.60;;;;;;;10.90;100.00;100477.41;5058855;28;20488;-78
2023/12/24 06:16:53;;;;;;;0.45;0.45;;;;;;;10.92;100.00;100464.16;5065326;28;20525;-79
2023/12/24 06:19:18;;;;;;;0.55;0.55;;;;;;;11.00;100.00;100467.25;5062604;28;20607;-79
2023/12/24 06:21:43;;;;;;;0.68;0.60;;;;;;;10.92;100.00;100458.84;5062405;28;20032;-78
2023/12/24 06:24:09;;;;;;;0.77;0.55;;;;;;;10.98;100.00;100466.50;5067144;28;20361;-78
2023/12/24 06:26:34;;;;;;;1.25;1.15;;;;;;;11.05;100.00;100474.97;5061181;28;20060;-79
2023/12/24 06:28:59;;;;;;;1.38;0.88;;;;;;;11.02;100.00;100462.78;5062422;28;20032;-79
2023/12/24 06:31:25;;;;;;;0.65;0.57;;;;;;;11.02;100.00;100452.19;5062386;28;20028;-79
2023/12/24 06:33:51;;;;;;;1.13;0.73;;;;;;;11.02;100.00;100454.84;5061869;28;20056;-79
2023/12/24 06:36:17;;;;;;;0.70;0.60;;;;;;;11.03;100.00;100453.91;5054239;28;20063;-78
2023/12/24 06:38:42;;;;;;;1.08;0.70;;;;;;;11.02;100.00;100446.91;5062243;28;20387;-78
2023/12/24 06:41:08;;;;;;;0.93;0.65;;;;;;;11.02;100.00;100441.59;5062994;28;20028;-78
2023/12/24 06:43:33;;;;;;;0.57;0.57;;;;;;;11.07;100.00;100444.88;5059540;28;20033;-78
2023/12/24 06:45:58;;;;;;;1.20;0.80;;;;;;;11.05;100.00;100446.75;5060618;28;20111;-78
2023/12/24 06:48:24;;;;;;;1.95;0.60;;;;;;;11.14;100.00;100450.72;5065100;28;20020;-79
2023/12/24 06:50:49;;;;;;;0.77;0.60;;;;;;;11.16;100.00;100452.38;5056879;28;20115;-79
2023/12/24 06:53:15;;;;;;;0.55;0.50;;;;;;;11.18;100.00;100433.78;5056892;28;20029;-78
2023/12/24 06:55:43;;;;;;;0.70;0.60;;;;;;;11.22;100.00;100448.56;5058950;28;20175;-78
2023/12/24 06:58:09;;;;;;;0.70;0.70;;;;;;;11.16;100.00;100444.44;5056526;28;20056;-79
2023/12/24 07:00:34;;;;;;;0.47;0.47;;;;;;;11.27;100.00;100430.66;5058127;28;20029;-79
2023/12/24 07:03:00;;;;;;;1.13;0.63;;;;;;;11.27;100.00;100432.47;5063250;28;20059;-79
2023/12/24 07:05:25;;;;;;;0.60;0.60;;;;;;;11.29;100.00;100441.19;5067943;28;20495;-78
2023/12/24 07:07:50;;;;;;;0.50;0.50;;;;;;;11.29;100.00;100430.63;5062619;28;20091;-78
2023/12/24 07:10:16;;;;;;;0.63;0.60;;;;;;;11.01;100.00;100442.53;5063535;28;20044;-79
2023/12/24 07:12:41;;;;;;;1.27;0.63;;;;;;;10.98;100.00;100440.03;5061771;28;20016;-78
2023/12/24 07:15:07;;;;;;;0.73;0.73;;;;;;;10.93;100.00;100437.63;5056182;28;20305;-79
2023/12/24 07:17:33;;;;;;;1.83;0.90;;;;;;;10.92;100.00;100449.13;5054312;28;20439;-77
2023/12/24 07:19:59;;;;;;;1.75;0.70;;;;;;;10.95;100.00;100453.41;5056454;28;20024;-77
2023/12/24 07:22:24;;;;;;;1.45;0.68;;;;;;;10.93;100.00;100442.06;5053425;28;20051;-77
2023/12/24 07:24:53;;;;;;;0.93;0.80;;;;;;;10.96;100.00;100440.13;5061029;28;20448;-77
2023/12/24 07:27:20;;;;;;;1.95;1.20;;;;;;;10.97;100.00;100435.69;5062555;28;20028;-78
2023/12/24 07:29:45;;;;;;;1.33;1.23;;;;;;;10.97;100.00;100444.47;5050936;28;20064;-78
2023/12/24 07:32:10;;;;;;;1.65;1.20;;;;;;;10.98;100.00;100443.53;5059566;28;20534;-78
2023/12/24 07:34:36;;;;;;;1.58;1.30;;;;;;;11.01;100.00;100454.91;5054744;28;20127;-77
2023/12/24 07:37:01;;;;;;;1.52;1.15;;;;;;;11.03;100.00;100453.03;5063368;28;20086;-79
2023/12/24 07:39:26;;;;;;;1.13;1.00;;;;;;;10.98;100.00;100446.19;5060532;28;20471;-78
2023/12/24 07:41:53;;;;;;;1.38;1.00;;;;;;;10.98;100.00;100447.97;5054746;28;20043;-78
2023/12/24 07:44:18;;;;;;;1.38;1.00;;;;;;;11.03;100.00;100442.47;5055681;28;20024;-79
2023/12/24 07:46:44;;;;;;;1.52;1.35;;;;;;;11.01;100.00;100449.63;5060757;28;20468;-78
2023/12/24 07:49:09;;;;;;;1.83;1.10;;;;;;;11.05;100.00;100451.16;5066447;28;20108;-79
2023/12/24 07:51:35;;;;;;;1.40;1.30;;;;;;;11.03;100.00;100456.53;5065509;28;20724;-78
2023/12/24 07:54:00;;;;;;;1.85;1.20;;;;;;;11.05;100.00;100452.06;5052431;28;20722;-78
2023/12/24 07:56:25;;;;;;;1.10;1.00;;;;;;;11.05;100.00;100453.81;5058992;28;20111;-79
2023/12/24 07:58:51;;;;;;;1.10;1.00;;;;;;;11.04;100.00;100444.16;5059663;28;20411;-78
2023/12/24 08:01:16;;;;;;;1.88;1.10;;;;;;;10.97;100.00;100435.69;5057267;28;20562;-79
2023/12/24 08:03:41;;;;;;;0.70;0.70;;;;;;;11.03;100.00;100438.03;5054668;28;20032;-78
2023/12/24 08:06:07;;;;;;;1.00;0.90;;;;;;;11.05;100.00;100430.00;5056751;28;20119;-79
2023/12/24 08:08:32;;;;;;;1.52;0.80;;;;;;;11.04;100.00;100438.88;5063868;28;20124;-78
2023/12/24 08:10:58;;;;;;;0.70;0.70;;;;;;;11.03;100.00;100443.31;5065295;28;20107;-78
2023/12/24 08:13:23;;;;;;;0.75;0.60;;;;;;;11.04;100.00;100445.03;5057022;28;20575;-78
2023/12/24 08:15:48;;;;;;;0.80;0.60;;;;;;;11.04;100.00;100438.88;5065130;28;20375;-78
2023/12/24 08:18:14;;;;;;;0.73;0.73;;;;;;;11.02;100.00;100441.59;5058396;28;20029;-78
2023/12/24 08:20:39;;;;;;;1.65;0.90;;;;;;;11.05;100.00;100444.13;5060436;28;20526;-78
2023/12/24 08:23:07;;;;;;;0.63;0.63;;;;;;;11.08;100.00;100438.66;5059806;28;20588;-78
2023/12/24 08:25:32;;;;;;;1.70;0.63;;;;;;;11.12;100.00;100442.00;5062365;28;20058;-78
2023/12/24 08:28:01;;;;;;;0.60;0.60;;;;;;;11.10;100.00;100436.81;5057722;28;20028;-79
2023/12/24 08:30:28;;;;;;;1.13;0.70;;;;;;;11.10;100.00;100428.88;5064446;28;20043;-78
2023/12/24 08:32:53;;;;;;;0.63;0.63;;;;;;;11.05;100.00;100436.19;5061168;28;20511;-77
2023/12/24 08:35:19;;;;;;;0.88;0.88;;;;;;;11.08;100.00;100432.50;5064297;28;20017;-78
2023/12/24 08:37:44;;;;;;;1.00;0.73;;;;;;;11.13;100.00;100426.06;5070532;28;20199;-77
2023/12/24 08:40:11;;;;;;;1.50;0.80;;;;;;;11.34;100.00;100426.81;5066354;28;20112;-78
2023/12/24 08:42:36;;;;;;;1.50;0.82;;;;;;;11.20;100.00;100424.84;5066190;28;20725;-78
2023/12/24 08:45:02;;;;;;;0.88;0.88;;;;;;;11.07;100.00;100422.88;5065191;28;20021;-78
2023/12/24 08:47:27;;;;;;;1.02;0.93;;;;;;;11.13;100.00;100420.75;5062208;28;20029;-77
2023/12/24 08:49:53;;;;;;;1.27;0.60;;;;;;;11.17;100.00;100419.69;5065379;28;20032;-78
2023/12/24 08:52:18;;;;;;;0.80;0.75;;;;;;;11.18;100.00;100423.19;5067140;28;20089;-78
2023/12/24 08:54:43;;;;;;;0.60;0.60;;;;;;;11.39;100.00;100427.44;5070790;28;20025;-77
2023/12/24 08:57:09;;;;;;;0.70;0.70;;;;;;;11.47;100.00;100414.66;5062767;28;20392;-79
2023/12/24 08:59:34;;;;;;;0.82;0.82;;;;;;;11.37;100.00;100426.63;5059118;28;20028;-78
2023/12/24 09:02:00;;;;;;;0.65;0.65;;;;;;;11.64;100.00;100427.03;5061418;28;20028;-78
2023/12/24 09:04:25;;;;;;;1.00;0.77;;;;;;;11.65;100.00;100430.53;5066278;28;20165;-78
2023/12/24 09:06:50;;;;;;;0.63;0.63;;;;;;;11.74;100.00;100440.66;5060310;28;20029;-78
2023/12/24 09:09:16;;;;;;;1.10;1.00;;;;;;;11.77;100.00;100452.88;5059968;28;20020;-78
2023/12/24 09:11:41;;;;;;;0.70;0.70;;;;;;;11.45;100.00;100453.56;5064626;28;20079;-79
2023/12/24 09:14:07;;;;;;;1.35;1.00;;;;;;;11.40;100.00;100452.94;5067022;28;20125;-78
2023/12/24 09:16:32;;;;;;;1.52;1.20;;;;;;;11.39;100.00;100456.53;5064669;28;20035;-78
2023/12/24 09:18:58;;;;;;;1.40;1.30;;;;;;;11.39;100.00;100463.63;5069542;28;20027;-79
2023/12/24 09:21:23;;;;;;;1.83;1.15;;;;;;;11.40;100.00;100457.38;5063422;28;20115;-78
2023/12/24 09:23:49;;;;;;;1.13;1.02;;;;;;;11.37;100.00;100446.94;5064260;28;20033;-78
2023/12/24 09:26:14;;;;;;;1.20;1.10;;;;;;;11.37;100.00;100437.22;5066075;28;20392;-78
2023/12/24 09:28:39;;;;;;;1.38;1.20;;;;;;;11.43;100.00;100436.94;5062393;28;20036;-78
2023/12/24 09:31:05;;;;;;;1.20;1.10;;;;;;;11.45;100.00;100439.50;5060023;28;20071;-78
2023/12/24 09:33:32;;;;;;;1.35;1.25;;;;;;;11.50;100.00;100435.66;5066906;28;20078;-79
2023/12/24 09:35:57;;;;;;;1.90;1.30;;;;;;;11.53;100.00;100436.47;5065279;28;20028;-79
2023/12/24 09:38:23;;;;;;;1.73;1.10;;;;;;;11.62;100.00;100428.06;5065713;28;20074;-78
2023/12/24 09:40:48;;;;;;;0.80;0.80;;;;;;;11.53;100.00;100420.59;5062996;28;20229;-80
2023/12/24 09:43:13;;;;;;;1.45;0.90;;;;;;;11.69;100.00;100421.50;5056471;28;20056;-79
2023/12/24 09:45:39;;;;;;;1.38;1.17;;;;;;;11.67;100.00;100428.69;5061890;28;20033;-78
2023/12/24 09:48:04;;;;;;;4.35;2.95;;;;;;;11.69;100.00;100422.34;5056868;28;20025;-77
2023/12/24 09:50:30;;;;;;;1.48;1.02;;;;;;;11.75;100.00;100437.09;5058533;28;20344;-76
2023/12/24 09:52:56;;;;;;;2.03;1.60;;;;;;;11.75;100.00;100437.94;5065902;28;20435;-77
2023/12/24 09:55:22;;;;;;;1.00;0.90;;;;;;;11.77;100.00;100442.28;5053685;28;20032;-77
2023/12/24 09:57:47;;;;;;;1.48;1.33;;;;;;;11.78;100.00;100428.97;5056689;28;20447;-77
2023/12/24 10:00:16;;;;;;;1.60;1.30;;;;;;;11.88;100.00;100432.88;5061240;28;20024;-77
2023/12/24 10:02:41;;;;;;;1.63;1.42;;;;;;;11.83;100.00;100424.31;5067854;28;20392;-78
2023/12/24 10:05:07;;;;;;;2.10;1.67;;;;;;;11.86;100.00;100418.03;5051537;28;20029;-78
2023/12/24 10:07:40;;;;;;;2.45;1.73;;;;;;;11.87;100.00;100436.47;5061761;28;20032;-77
2023/12/24 10:10:09;;;;;;;3.53;2.85;;;;;;;11.90;100.00;100444.28;5055042;28;20027;-75
2023/12/24 10:12:34;;;;;;;6.47;3.55;;;;;;;11.94;100.00;100424.63;5062896;28;20032;-77
2023/12/24 10:15:00;;;;;;;6.75;4.15;;;;;;;11.94;100.00;100432.59;5062879;28;20097;-76
2023/12/24 10:17:30;;;;;;;7.82;4.05;;;;;;;11.95;100.00;100412.25;5052964;28;20620;-75
2023/12/24 10:19:57;;;;;;;8.90;5.03;;;;;;;12.01;100.00;100433.09;5061135;28;20055;-77
2023/12/24 10:22:23;;;;;;;10.63;6.20;;;;;;;12.02;100.00;100445.41;5067413;28;20085;-76
2023/12/24 10:24:49;;;;;;;10.82;6.95;;;;;;;12.02;100.00;100426.84;5056583;28;20027;-76
2023/12/24 10:27:15;;;;;;;13.00;7.65;;;;;;;12.12;100.00;100437.81;5058134;28;20029;-77
2023/12/24 10:29:42;;;;;;;15.07;8.35;;;;;;;12.12;100.00;100425.44;5059002;28;20048;-76
2023/12/24 10:32:10;;;;;;;15.35;7.95;;;;;;;12.14;100.00;100404.16;5063778;28;21091;-76
2023/12/24 10:34:37;;;;;;;15.25;7.47;;;;;;;12.21;100.00;100427.59;5057284;28;20024;-77
2023/12/24 10:37:26;;;;;;;16.50;8.95;;;;;;;12.28;100.00;100408.72;5059372;28;20032;-77
2023/12/24 10:39:52;;;;;;;14.57;7.63;;;;;;;12.30;100.00;100412.13;5056960;28;20456;-77
2023/12/24 10:42:18;;;;;;;11.02;6.38;;;;;;;12.34;100.00;100408.38;5062958;28;20055;-76
2023/12/24 10:44:43;;;;;;;13.55;6.57;;;;;;;12.30;100.00;100405.03;5060910;28;20024;-77
2023/12/24 10:47:08;;;;;;;16.75;7.55;;;;;;;12.34;100.00;100405.72;5056740;28;20514;-76
2023/12/24 10:49:34;;;;;;;14.07;6.35;;;;;;;12.42;100.00;100399.06;5063935;28;20024;-77
2023/12/24 10:51:59;;;;;;;10.80;6.55;;;;;;;12.39;100.00;100393.06;5056344;28;20524;-77
2023/12/24 10:54:27;;;;;;;13.70;6.25;;;;;;;12.41;100.00;100392.06;5061156;28;20029;-77
2023/12/24 10:57:02;;;;;;;10.35;5.60;;;;;;;12.47;100.00;100381.13;5055566;28;20059;-79
2023/12/24 10:59:37;;;;;;;7.60;4.43;;;;;;;12.46;100.00;100391.81;5064998;28;20077;-78
2023/12/24 11:02:04;;;;;;;6.28;4.07;;;;;;;12.48;100.00;100380.16;5058607;28;20028;-78
2023/12/24 11:04:44;;;;;;;7.70;3.65;;;;;;;12.54;100.00;100371.00;5055166;28;20032;-79
2023/12/24 11:07:10;;;;;;;5.97;3.60;;;;;;;12.55;100.00;100366.59;5061212;28;20597;-79
2023/12/24 11:09:35;;;;;;;7.53;3.88;;;;;;;12.57;100.00;100376.16;5054302;28;20027;-79
2023/12/24 11:12:00;;;;;;;5.18;2.78;;;;;;;12.55;100.00;100367.44;5055706;28;20060;-78
2023/12/24 11:14:48;;;;;;;5.32;2.75;;;;;;;12.58;100.00;100374.34;5058547;28;20039;-79